Time;durP1;ratioP1;P1;durP2;ratioP2;P2;SDS_P1;SDS_P2;PMS_P1;PMS_P2;Temp;Humidity;BMP_temperature;BMP_pressure;BME280_temperature;BME280_humidity;BME280_pressure;Samples;Min_cycle;Max_cycle;Signal;HPM_P1;HPM_P2
2021/06/25 00:02:04;;;;;;;0.88;0.88;;;16.60;86.80;;;;;;5021799;28;20041;-76
2021/06/25 00:04:30;;;;;;;1.23;1.05;;;16.60;85.60;;;;;;5022469;28;20030;-76
2021/06/25 00:06:55;;;;;;;1.40;1.30;;;16.60;85.60;;;;;;5023927;28;20119;-76
2021/06/25 00:09:21;;;;;;;1.42;1.10;;;16.60;85.50;;;;;;5022432;28;20557;-76
2021/06/25 00:11:46;;;;;;;2.10;1.30;;;16.60;85.40;;;;;;5025504;28;20053;-76
2021/06/25 00:14:12;;;;;;;1.00;1.00;;;16.60;86.00;;;;;;5025750;28;21774;-77
2021/06/25 00:16:38;;;;;;;1.23;1.13;;;16.60;85.80;;;;;;5035076;28;20439;-76
2021/06/25 00:19:04;;;;;;;1.20;1.10;;;16.60;85.80;;;;;;5023332;28;20032;-77
2021/06/25 00:21:30;;;;;;;1.77;1.33;;;16.60;85.70;;;;;;5012696;28;20030;-76
2021/06/25 00:23:55;;;;;;;1.67;1.10;;;16.60;85.60;;;;;;5030427;28;20034;-77
2021/06/25 00:26:21;;;;;;;1.67;1.30;;;16.60;86.40;;;;;;5031759;28;20033;-77
2021/06/25 00:28:47;;;;;;;1.63;1.48;;;16.60;86.00;;;;;;5025360;28;20037;-76
2021/06/25 00:31:12;;;;;;;2.20;1.30;;;16.60;86.10;;;;;;5030086;28;20041;-75
2021/06/25 00:33:38;;;;;;;2.80;1.40;;;16.50;86.20;;;;;;5014525;28;20096;-76
2021/06/25 00:36:04;;;;;;;1.40;1.30;;;16.50;86.20;;;;;;5025573;28;20395;-76
2021/06/25 00:38:30;;;;;;;1.58;1.10;;;16.50;87.00;;;;;;5025835;28;20147;-77
2021/06/25 00:40:55;;;;;;;1.30;1.20;;;16.40;86.90;;;;;;5023721;28;20509;-76
2021/06/25 00:43:21;;;;;;;1.40;1.30;;;16.40;87.30;;;;;;5031031;28;20021;-77
2021/06/25 00:45:47;;;;;;;2.17;1.10;;;16.40;86.20;;;;;;5031458;28;20041;-77
2021/06/25 00:48:12;;;;;;;1.80;0.90;;;16.40;86.30;;;;;;5023878;28;20741;-77
2021/06/25 00:50:38;;;;;;;1.00;1.00;;;16.40;85.60;;;;;;5025179;28;20025;-77
2021/06/25 00:53:04;;;;;;;0.98;0.98;;;16.30;85.70;;;;;;5020851;28;20116;-76
2021/06/25 00:55:44;;;;;;;0.85;0.85;;;16.30;85.70;;;;;;5030323;28;20045;-76
2021/06/25 00:58:12;;;;;;;3.13;1.00;;;16.30;86.20;;;;;;5025120;28;20087;-77
2021/06/25 01:00:38;;;;;;;4.22;1.35;;;16.10;86.20;;;;;;5044800;28;20599;-77
2021/06/25 01:03:04;;;;;;;1.13;1.13;;;16.20;85.70;;;;;;5028758;28;20105;-77
2021/06/25 01:05:29;;;;;;;1.23;1.10;;;16.20;85.50;;;;;;5030405;28;20412;-77
2021/06/25 01:07:56;;;;;;;1.10;1.10;;;16.10;85.50;;;;;;5025747;28;20033;-77
2021/06/25 01:10:21;;;;;;;1.30;1.20;;;16.10;85.60;;;;;;5024079;28;20025;-77
2021/06/25 01:12:47;;;;;;;0.85;0.85;;;16.10;85.70;;;;;;5023120;28;20044;-76
2021/06/25 01:15:14;;;;;;;1.08;1.08;;;16.10;86.00;;;;;;5029440;28;20481;-76
2021/06/25 01:17:42;;;;;;;1.00;1.00;;;16.10;85.70;;;;;;5026133;28;20034;-76
2021/06/25 01:20:09;;;;;;;1.67;0.88;;;16.10;85.90;;;;;;5026345;28;20116;-76
2021/06/25 01:22:38;;;;;;;0.80;0.80;;;16.10;85.80;;;;;;5018455;28;20040;-76
2021/06/25 01:25:06;;;;;;;3.33;1.08;;;16.00;85.70;;;;;;5030012;28;20025;-77
2021/06/25 01:27:32;;;;;;;0.90;0.90;;;16.10;85.50;;;;;;5022581;28;20068;-77
2021/06/25 01:29:58;;;;;;;3.13;1.15;;;16.10;85.50;;;;;;5022648;28;20097;-77
2021/06/25 01:32:24;;;;;;;1.10;1.10;;;16.10;85.40;;;;;;5015852;28;20049;-76
2021/06/25 01:34:50;;;;;;;1.27;1.17;;;16.00;86.10;;;;;;5024398;28;20042;-76
2021/06/25 01:37:16;;;;;;;0.82;0.82;;;16.00;85.90;;;;;;5024390;28;20057;-76
2021/06/25 01:39:42;;;;;;;1.13;1.00;;;16.00;86.00;;;;;;5028322;28;20072;-76
2021/06/25 01:42:08;;;;;;;1.10;1.00;;;16.00;86.60;;;;;;5013184;28;22304;-76
2021/06/25 01:44:35;;;;;;;1.33;1.25;;;15.90;85.80;;;;;;5022501;28;20053;-77
2021/06/25 01:47:03;;;;;;;1.10;1.05;;;16.00;86.60;;;;;;5029146;28;20029;-76
2021/06/25 01:49:29;;;;;;;1.08;1.08;;;15.90;86.20;;;;;;5017744;28;20032;-77
2021/06/25 01:51:55;;;;;;;1.15;1.05;;;15.90;86.10;;;;;;5022152;28;20418;-77
2021/06/25 01:54:20;;;;;;;1.35;1.25;;;16.00;86.10;;;;;;5020337;28;20029;-76
2021/06/25 01:56:46;;;;;;;1.02;1.02;;;15.90;86.30;;;;;;5024783;28;20555;-75
2021/06/25 01:59:12;;;;;;;1.40;1.30;;;15.90;86.10;;;;;;5023814;28;20038;-77
2021/06/25 02:01:38;;;;;;;4.72;1.38;;;15.90;86.60;;;;;;5020950;28;20101;-77
2021/06/25 02:04:03;;;;;;;1.40;1.30;;;15.90;86.50;;;;;;5026377;28;20488;-76
2021/06/25 02:06:29;;;;;;;1.40;1.30;;;15.80;86.80;;;;;;5023194;28;20237;-76
2021/06/25 02:08:55;;;;;;;1.10;1.10;;;15.80;86.90;;;;;;5029095;28;20024;-77
2021/06/25 02:11:23;;;;;;;1.75;1.38;;;15.80;86.80;;;;;;5028539;28;20903;-76
2021/06/25 02:13:48;;;;;;;1.52;1.40;;;15.80;86.90;;;;;;5024181;28;20416;-77
2021/06/25 02:16:14;;;;;;;1.27;1.17;;;15.80;86.90;;;;;;5029025;28;20044;-76
2021/06/25 02:18:40;;;;;;;1.23;1.13;;;15.80;87.00;;;;;;5024631;28;20488;-77
2021/06/25 02:21:06;;;;;;;1.40;1.30;;;15.80;87.10;;;;;;5030751;28;20044;-77
2021/06/25 02:23:31;;;;;;;1.20;1.10;;;15.80;87.00;;;;;;5026395;28;20048;-76
2021/06/25 02:25:57;;;;;;;1.48;1.30;;;15.80;87.00;;;;;;5035443;28;20040;-76
2021/06/25 02:28:23;;;;;;;2.90;1.45;;;15.80;86.80;;;;;;5029243;28;20037;-76
2021/06/25 02:30:48;;;;;;;2.70;1.67;;;15.80;87.00;;;;;;5036363;28;20037;-76
2021/06/25 02:33:14;;;;;;;1.83;1.30;;;15.80;87.20;;;;;;5024400;28;20033;-77
2021/06/25 02:35:40;;;;;;;3.08;1.52;;;15.80;87.40;;;;;;5030678;28;20108;-75
2021/06/25 02:38:06;;;;;;;1.40;1.30;;;15.70;88.00;;;;;;5027958;28;20496;-77
2021/06/25 02:40:32;;;;;;;1.45;1.35;;;15.70;87.60;;;;;;5021998;28;20033;-76
2021/06/25 02:42:57;;;;;;;2.83;1.50;;;15.70;87.50;;;;;;5031857;28;20029;-76
2021/06/25 02:45:23;;;;;;;1.30;1.20;;;15.70;87.80;;;;;;5030596;28;20053;-76
2021/06/25 02:47:48;;;;;;;1.40;1.30;;;15.70;87.60;;;;;;5025061;28;20033;-76
2021/06/25 02:50:15;;;;;;;2.20;1.50;;;15.70;88.10;;;;;;5023432;28;20029;-76
2021/06/25 02:52:41;;;;;;;3.53;1.73;;;15.80;87.80;;;;;;5031431;28;20025;-76
2021/06/25 02:55:09;;;;;;;2.20;1.50;;;15.80;87.50;;;;;;5026543;28;20030;-77
2021/06/25 02:57:35;;;;;;;2.22;1.42;;;15.80;87.40;;;;;;5032493;28;20471;-77
2021/06/25 03:00:03;;;;;;;1.73;1.30;;;15.80;87.40;;;;;;5029262;28;20132;-77
2021/06/25 03:02:29;;;;;;;1.42;1.33;;;15.80;87.40;;;;;;5027861;28;20052;-77
2021/06/25 03:04:54;;;;;;;1.48;1.38;;;15.80;87.50;;;;;;5025708;28;20017;-77
2021/06/25 03:07:20;;;;;;;2.08;1.38;;;15.80;87.30;;;;;;5033924;28;20032;-77
2021/06/25 03:09:46;;;;;;;1.60;1.20;;;15.70;87.30;;;;;;5028991;28;20474;-77
2021/06/25 03:12:11;;;;;;;1.40;1.30;;;15.80;87.40;;;;;;5028646;28;20033;-77
2021/06/25 03:14:37;;;;;;;2.60;1.55;;;15.70;87.40;;;;;;5025482;28;20030;-78
2021/06/25 03:17:03;;;;;;;1.95;1.60;;;15.70;87.80;;;;;;5025212;28;20584;-77
2021/06/25 03:19:28;;;;;;;1.38;1.13;;;15.70;87.80;;;;;;5026321;28;20034;-77
2021/06/25 03:21:54;;;;;;;1.50;1.40;;;15.70;87.50;;;;;;5026013;28;20419;-77
2021/06/25 03:24:20;;;;;;;2.28;1.50;;;15.70;87.20;;;;;;5030207;28;20029;-78
2021/06/25 03:26:45;;;;;;;2.10;1.50;;;15.70;87.50;;;;;;5022271;28;20017;-77
2021/06/25 03:29:11;;;;;;;1.50;1.40;;;15.70;87.20;;;;;;5020724;28;20510;-76
2021/06/25 03:31:37;;;;;;;1.65;1.55;;;15.70;88.00;;;;;;5026499;28;20044;-76
2021/06/25 03:34:02;;;;;;;1.48;1.38;;;15.60;87.40;;;;;;5023697;28;20030;-77
2021/06/25 03:36:28;;;;;;;1.70;1.60;;;15.70;87.40;;;;;;5022316;28;20056;-77
2021/06/25 03:38:54;;;;;;;2.08;1.58;;;15.70;87.60;;;;;;5026591;28;20030;-77
2021/06/25 03:41:19;;;;;;;1.63;1.52;;;15.60;87.50;;;;;;5025160;28;20029;-77
2021/06/25 03:43:45;;;;;;;1.70;1.60;;;15.60;87.60;;;;;;5022239;28;20075;-77
2021/06/25 03:46:11;;;;;;;1.90;1.50;;;15.60;87.60;;;;;;5029568;28;20040;-77
2021/06/25 03:48:36;;;;;;;2.00;1.80;;;15.60;87.40;;;;;;5025001;28;20041;-78
2021/06/25 03:51:02;;;;;;;1.63;1.52;;;15.60;87.40;;;;;;5029802;28;20044;-78
2021/06/25 03:53:28;;;;;;;2.10;1.80;;;15.60;87.20;;;;;;5033003;28;20034;-77
2021/06/25 03:56:10;;;;;;;2.10;1.90;;;15.50;87.30;;;;;;5029206;28;20397;-77
2021/06/25 03:58:36;;;;;;;1.77;1.55;;;15.50;88.30;;;;;;5026771;28;20040;-78
2021/06/25 04:01:03;;;;;;;2.28;1.77;;;15.50;87.60;;;;;;5023578;28;20124;-77
2021/06/25 04:03:29;;;;;;;1.85;1.75;;;15.50;87.60;;;;;;5021471;28;20531;-78
2021/06/25 04:05:54;;;;;;;2.03;1.80;;;15.60;87.60;;;;;;5034135;28;20079;-78
2021/06/25 04:08:20;;;;;;;2.00;1.80;;;15.50;87.40;;;;;;5024155;28;20033;-78
2021/06/25 04:10:45;;;;;;;2.72;1.90;;;15.50;87.50;;;;;;5017839;28;20070;-77
2021/06/25 04:13:11;;;;;;;2.35;1.60;;;15.50;87.90;;;;;;5022509;28;20030;-77
2021/06/25 04:15:37;;;;;;;6.32;1.92;;;15.60;88.10;;;;;;5033165;28;20033;-77
2021/06/25 04:18:03;;;;;;;1.90;1.80;;;15.50;88.00;;;;;;5030747;28;20053;-77
2021/06/25 04:20:29;;;;;;;1.73;1.60;;;15.50;88.10;;;;;;5034890;28;20159;-76
2021/06/25 04:22:55;;;;;;;1.95;1.80;;;15.50;88.00;;;;;;5031713;28;20112;-77
2021/06/25 04:25:20;;;;;;;3.05;1.90;;;15.60;88.10;;;;;;5023922;28;20735;-77
2021/06/25 04:27:46;;;;;;;1.95;1.50;;;15.60;87.80;;;;;;5025357;28;20044;-76
2021/06/25 04:30:13;;;;;;;2.30;2.10;;;15.60;87.80;;;;;;5024788;28;20111;-77
2021/06/25 04:32:41;;;;;;;2.22;1.80;;;15.60;88.00;;;;;;5021532;28;20497;-77
2021/06/25 04:35:07;;;;;;;2.10;1.70;;;15.60;88.10;;;;;;5022899;28;20030;-76
2021/06/25 04:37:32;;;;;;;2.15;1.67;;;15.60;88.90;;;;;;5025634;28;20114;-76
2021/06/25 04:39:58;;;;;;;2.08;1.90;;;15.60;87.80;;;;;;5021550;28;20116;-77
2021/06/25 04:42:24;;;;;;;1.90;1.67;;;15.70;87.90;;;;;;5027918;28;20507;-76
2021/06/25 04:44:49;;;;;;;1.73;1.63;;;15.70;88.20;;;;;;5027137;28;20028;-77
2021/06/25 04:47:15;;;;;;;2.13;1.70;;;15.60;88.10;;;;;;5024073;28;20059;-77
2021/06/25 04:49:41;;;;;;;1.90;1.80;;;15.60;88.00;;;;;;5024940;28;20076;-77
2021/06/25 04:52:07;;;;;;;1.73;1.50;;;15.60;88.60;;;;;;5024210;28;20427;-77
2021/06/25 04:54:33;;;;;;;2.10;1.48;;;15.70;88.70;;;;;;5019226;28;20456;-77
2021/06/25 04:56:59;;;;;;;1.70;1.60;;;15.70;87.90;;;;;;5031709;28;20447;-75
2021/06/25 04:59:26;;;;;;;3.05;1.48;;;15.60;87.60;;;;;;5026543;28;20017;-77
2021/06/25 05:01:52;;;;;;;3.10;1.60;;;15.60;87.80;;;;;;5020041;28;20029;-76
2021/06/25 05:04:17;;;;;;;1.60;1.50;;;15.60;87.80;;;;;;5025204;28;20088;-76
2021/06/25 05:06:43;;;;;;;2.25;1.60;;;15.60;87.80;;;;;;5020487;28;20067;-77
2021/06/25 05:09:09;;;;;;;2.22;1.50;;;15.60;87.80;;;;;;5025146;28;20550;-76
2021/06/25 05:11:34;;;;;;;3.65;1.77;;;15.60;87.90;;;;;;5025593;28;20026;-77
2021/06/25 05:14:00;;;;;;;3.13;1.88;;;15.70;87.70;;;;;;5016056;28;20034;-76
2021/06/25 05:16:26;;;;;;;2.92;1.52;;;15.60;87.50;;;;;;5020847;28;20029;-77
2021/06/25 05:18:51;;;;;;;1.90;1.70;;;15.70;87.80;;;;;;5022005;28;20436;-76
2021/06/25 05:21:17;;;;;;;2.53;1.85;;;15.70;87.80;;;;;;5022597;28;20020;-77
2021/06/25 05:23:43;;;;;;;2.97;1.90;;;15.70;88.40;;;;;;5016572;28;20029;-77
2021/06/25 05:26:09;;;;;;;2.80;2.08;;;15.70;87.90;;;;;;5017920;28;20033;-77
2021/06/25 05:28:34;;;;;;;2.90;2.20;;;15.70;88.20;;;;;;5024681;28;20026;-76
2021/06/25 05:31:00;;;;;;;2.15;1.75;;;15.80;88.00;;;;;;5021520;28;20064;-77
2021/06/25 05:33:25;;;;;;;3.78;2.05;;;15.80;88.60;;;;;;5028126;28;20369;-77
2021/06/25 05:35:51;;;;;;;3.08;1.80;;;15.80;87.50;;;;;;5024363;28;20060;-77
2021/06/25 05:38:17;;;;;;;3.35;2.17;;;15.80;87.60;;;;;;5020983;28;20033;-75
2021/06/25 05:40:43;;;;;;;2.10;1.90;;;15.80;87.90;;;;;;5016578;28;20026;-76
2021/06/25 05:43:10;;;;;;;2.70;1.95;;;15.90;88.20;;;;;;5013447;28;20399;-76
2021/06/25 05:45:37;;;;;;;2.65;1.88;;;15.90;87.90;;;;;;5017289;28;20025;-77
2021/06/25 05:48:03;;;;;;;2.53;1.98;;;16.00;87.30;;;;;;5012738;28;20037;-77
2021/06/25 05:50:30;;;;;;;2.35;2.15;;;15.90;86.60;;;;;;5027856;28;20021;-76
2021/06/25 05:52:56;;;;;;;3.42;2.13;;;15.90;86.10;;;;;;5032366;28;20075;-77
2021/06/25 05:55:22;;;;;;;2.90;2.00;;;15.90;86.10;;;;;;5013777;28;20527;-77
2021/06/25 05:57:50;;;;;;;3.13;2.13;;;15.90;86.50;;;;;;5017667;28;20408;-77
2021/06/25 06:00:16;;;;;;;;;;;16.00;86.60;;;;;;5024493;28;20025;-76
2021/06/25 06:02:42;;;;;;;5.68;2.88;;;16.00;86.80;;;;;;5017913;28;20534;-76
2021/06/25 06:05:08;;;;;;;3.78;2.67;;;16.00;86.50;;;;;;5026297;28;20037;-77
2021/06/25 06:07:34;;;;;;;3.88;2.67;;;16.00;86.30;;;;;;5020142;28;20077;-77
2021/06/25 06:10:00;;;;;;;3.38;2.75;;;16.10;86.80;;;;;;5023260;28;20634;-76
2021/06/25 06:12:26;;;;;;;4.03;2.42;;;16.10;86.40;;;;;;5019202;28;20062;-76
2021/06/25 06:14:51;;;;;;;4.30;2.80;;;16.10;86.60;;;;;;5016590;28;20030;-76
2021/06/25 06:17:19;;;;;;;3.45;2.75;;;16.10;86.70;;;;;;5023464;28;20504;-77
2021/06/25 06:19:48;;;;;;;5.82;2.65;;;16.20;86.40;;;;;;5015429;28;20404;-77
2021/06/25 06:33:33;;;;;;;4.30;2.75;;;16.30;84.80;;;;;;5021572;28;20500;-77
2021/06/25 06:36:00;;;;;;;5.63;2.75;;;16.40;84.80;;;;;;5019667;28;20022;-77
2021/06/25 06:38:28;;;;;;;10.00;3.35;;;16.40;85.40;;;;;;5025290;28;20036;-77
2021/06/25 06:40:54;;;;;;;5.88;2.92;;;16.50;85.30;;;;;;5025597;28;20029;-77
2021/06/25 06:43:19;;;;;;;3.95;2.72;;;16.60;86.30;;;;;;5016261;28;20025;-77
2021/06/25 06:45:45;;;;;;;4.38;2.83;;;16.70;86.70;;;;;;5015196;28;20028;-77
2021/06/25 06:48:10;;;;;;;4.40;2.90;;;16.70;84.50;;;;;;5022323;28;20028;-77
2021/06/25 06:50:36;;;;;;;3.83;2.80;;;16.80;84.80;;;;;;5026138;28;20037;-77
2021/06/25 06:53:02;;;;;;;4.35;2.45;;;16.90;84.20;;;;;;5025089;28;20602;-77
2021/06/25 06:55:28;;;;;;;5.32;3.15;;;17.00;84.50;;;;;;5027424;28;20029;-76
2021/06/25 06:57:53;;;;;;;4.35;2.97;;;17.00;85.00;;;;;;5025004;28;20064;-76
2021/06/25 07:00:19;;;;;;;4.20;2.60;;;17.10;83.20;;;;;;5022671;28;20044;-76
2021/06/25 07:02:45;;;;;;;3.58;2.70;;;17.20;83.80;;;;;;5027367;28;20140;-77
2021/06/25 07:05:14;;;;;;;5.60;2.70;;;17.10;82.60;;;;;;5029373;28;20112;-77
2021/06/25 07:07:40;;;;;;;3.97;2.60;;;17.20;82.70;;;;;;5026878;28;20139;-76
2021/06/25 07:10:07;;;;;;;6.32;2.75;;;17.10;81.60;;;;;;5028086;28;20322;-77
2021/06/25 07:12:33;;;;;;;5.75;2.92;;;17.10;81.60;;;;;;5030561;28;20029;-76
2021/06/25 07:14:59;;;;;;;3.38;2.47;;;17.20;82.80;;;;;;5025961;28;20036;-76
2021/06/25 07:17:24;;;;;;;3.17;2.22;;;17.10;81.90;;;;;;5027100;28;20022;-76
2021/06/25 07:19:51;;;;;;;3.90;2.30;;;17.20;82.80;;;;;;5025692;28;20041;-76
2021/06/25 07:22:16;;;;;;;2.58;2.38;;;17.10;81.20;;;;;;5022966;28;20017;-75
2021/06/25 07:24:42;;;;;;;2.60;2.15;;;17.20;82.80;;;;;;5019006;28;20034;-77
2021/06/25 07:27:08;;;;;;;3.70;2.72;;;17.20;81.90;;;;;;5023723;28;20025;-76
2021/06/25 07:29:34;;;;;;;2.80;2.30;;;17.20;81.10;;;;;;5027012;28;20044;-77
2021/06/25 07:32:00;;;;;;;3.45;2.30;;;17.20;80.70;;;;;;5029741;28;20041;-77
2021/06/25 07:34:26;;;;;;;2.60;2.40;;;17.30;81.30;;;;;;5025728;28;20021;-77
2021/06/25 07:36:52;;;;;;;3.03;2.03;;;17.20;80.40;;;;;;5025259;28;20033;-77
2021/06/25 07:39:17;;;;;;;2.72;2.10;;;17.30;81.20;;;;;;5018818;28;20038;-77
2021/06/25 07:41:43;;;;;;;3.13;2.10;;;17.30;80.60;;;;;;5028052;28;20117;-77
2021/06/25 07:44:09;;;;;;;3.13;2.15;;;17.30;79.80;;;;;;5025894;28;20033;-77
2021/06/25 07:46:34;;;;;;;3.15;1.90;;;17.30;81.20;;;;;;5031162;28;20531;-77
2021/06/25 07:49:00;;;;;;;2.28;2.00;;;17.30;81.10;;;;;;5023862;28;20032;-77
2021/06/25 07:51:27;;;;;;;2.60;1.90;;;17.30;79.50;;;;;;5032474;28;21353;-77
2021/06/25 07:53:53;;;;;;;2.40;2.10;;;17.30;79.60;;;;;;5029545;28;20030;-77
2021/06/25 07:56:22;;;;;;;3.78;2.20;;;17.20;79.50;;;;;;5031222;28;20025;-77
2021/06/25 07:58:47;;;;;;;3.88;2.40;;;17.30;81.20;;;;;;5026530;28;20026;-77
2021/06/25 08:01:13;;;;;;;2.35;2.15;;;17.40;80.20;;;;;;5026457;28;20096;-78
2021/06/25 08:03:39;;;;;;;2.45;2.22;;;17.40;80.80;;;;;;5028632;28;20104;-77
2021/06/25 08:06:05;;;;;;;2.67;2.20;;;17.50;81.00;;;;;;5028503;28;20044;-77
2021/06/25 08:08:30;;;;;;;3.05;1.90;;;17.50;80.20;;;;;;5025829;28;20018;-77
2021/06/25 08:10:56;;;;;;;3.20;2.10;;;17.50;79.70;;;;;;5031789;28;20464;-78
2021/06/25 08:13:22;;;;;;;2.90;2.25;;;17.50;80.00;;;;;;5025210;28;20041;-77
2021/06/25 08:15:50;;;;;;;2.45;2.15;;;17.50;79.90;;;;;;5025441;28;20018;-77
2021/06/25 08:18:16;;;;;;;;;;;17.60;80.00;;;;;;5026133;28;20102;-77
2021/06/25 08:20:42;;;;;;;2.53;2.30;;;17.80;81.20;;;;;;5031376;28;19963;-77
2021/06/25 08:23:08;;;;;;;2.80;2.10;;;17.90;81.50;;;;;;5029370;28;20601;-77
2021/06/25 08:25:34;;;;;;;3.65;2.30;;;18.10;80.50;;;;;;5024433;28;20033;-77
2021/06/25 08:27:59;;;;;;;2.75;2.20;;;18.20;79.80;;;;;;5027656;28;20030;-77
2021/06/25 08:30:26;;;;;;;3.33;2.15;;;18.30;78.60;;;;;;5027945;28;20068;-77
2021/06/25 08:32:53;;;;;;;2.70;2.35;;;18.40;78.80;;;;;;5027776;28;20353;-76
2021/06/25 08:35:21;;;;;;;2.45;2.25;;;18.30;77.50;;;;;;5025812;28;20034;-76
2021/06/25 08:37:47;;;;;;;2.55;2.03;;;18.30;78.40;;;;;;5026191;28;20028;-76
2021/06/25 08:40:13;;;;;;;3.55;2.63;;;18.20;77.80;;;;;;5022476;28;20029;-77
2021/06/25 08:42:39;;;;;;;2.05;1.85;;;18.20;78.80;;;;;;5026451;28;20033;-77
2021/06/25 08:45:07;;;;;;;2.80;2.13;;;18.10;78.00;;;;;;5027299;28;20017;-76
2021/06/25 08:47:41;;;;;;;2.47;1.90;;;18.10;78.20;;;;;;5027437;28;20086;-76
2021/06/25 08:50:09;;;;;;;2.10;1.90;;;18.20;78.20;;;;;;5023355;28;20444;-76
2021/06/25 08:52:34;;;;;;;2.10;1.98;;;18.30;78.40;;;;;;5025607;28;20025;-77
2021/06/25 08:55:00;;;;;;;3.10;1.90;;;18.40;78.10;;;;;;5022931;28;20040;-76
2021/06/25 08:57:26;;;;;;;4.03;1.90;;;18.40;78.70;;;;;;5029798;28;20102;-77
2021/06/25 08:59:52;;;;;;;2.30;1.92;;;18.40;77.30;;;;;;5018813;28;20108;-76
2021/06/25 09:02:19;;;;;;;2.13;1.88;;;18.30;76.40;;;;;;5026094;28;20174;-76
2021/06/25 09:04:47;;;;;;;2.00;1.80;;;18.30;76.30;;;;;;5023231;28;20022;-77
2021/06/25 09:07:12;;;;;;;2.83;2.20;;;18.30;76.70;;;;;;5029659;28;20021;-77
2021/06/25 09:09:41;;;;;;;1.85;1.75;;;18.40;77.50;;;;;;5021498;28;20048;-77
2021/06/25 09:12:23;;;;;;;2.15;1.75;;;18.50;77.20;;;;;;5026756;28;20085;-77
2021/06/25 09:15:11;;;;;;;2.75;2.30;;;18.70;76.70;;;;;;5025860;28;20091;-77
2021/06/25 09:17:58;;;;;;;1.75;1.65;;;18.80;76.90;;;;;;5022049;28;20017;-76
2021/06/25 09:20:53;;;;;;;2.45;2.00;;;18.90;75.90;;;;;;5042069;28;20079;-77
2021/06/25 09:23:26;;;;;;;2.67;1.90;;;18.90;75.90;;;;;;5018282;28;20033;-76
2021/06/25 09:25:56;;;;;;;2.88;2.33;;;18.80;75.70;;;;;;5025174;28;20025;-77
2021/06/25 09:28:43;;;;;;;1.55;1.45;;;18.80;74.00;;;;;;5026199;28;20382;-76
2021/06/25 09:31:25;;;;;;;1.73;1.58;;;18.70;74.60;;;;;;5022457;28;20041;-76
2021/06/25 09:33:56;;;;;;;1.80;1.70;;;18.70;74.30;;;;;;5019615;28;20155;-77
2021/06/25 09:36:27;;;;;;;2.33;1.90;;;18.60;74.50;;;;;;5024181;28;20029;-76
2021/06/25 09:38:58;;;;;;;1.60;1.50;;;18.60;75.80;;;;;;5026496;28;20025;-77
2021/06/25 09:41:26;;;;;;;2.10;1.70;;;18.60;76.60;;;;;;5025846;28;20025;-76
2021/06/25 09:43:58;;;;;;;4.60;2.03;;;18.60;76.40;;;;;;5028747;28;20029;-77
2021/06/25 09:46:30;;;;;;;2.10;1.90;;;18.60;76.20;;;;;;5018754;28;20029;-77
2021/06/25 09:48:58;;;;;;;2.10;1.95;;;18.60;76.10;;;;;;5025723;28;20108;-77
2021/06/25 09:51:24;;;;;;;2.50;1.67;;;18.70;76.20;;;;;;5028463;28;20025;-76
2021/06/25 09:54:13;;;;;;;2.90;1.85;;;18.70;75.80;;;;;;5026095;28;20038;-77
2021/06/25 09:56:46;;;;;;;2.83;1.85;;;18.70;75.30;;;;;;5024737;28;20032;-77
2021/06/25 10:02:17;;;;;;;2.08;1.80;;;18.80;75.10;;;;;;5027693;28;20037;-76
2021/06/25 10:04:44;;;;;;;2.13;1.90;;;19.00;76.10;;;;;;5019350;28;20037;-76
2021/06/25 10:07:12;;;;;;;2.10;1.90;;;19.00;72.90;;;;;;5024667;28;20061;-77
2021/06/25 10:09:37;;;;;;;2.77;1.90;;;18.90;73.00;;;;;;5021810;28;20057;-77
2021/06/25 10:12:04;;;;;;;2.65;1.83;;;19.00;73.50;;;;;;5025697;28;20324;-77
2021/06/25 10:14:31;;;;;;;2.28;2.05;;;18.90;74.40;;;;;;5015525;28;20029;-76
2021/06/25 10:16:57;;;;;;;2.20;1.80;;;18.80;75.10;;;;;;5026364;28;20432;-77
2021/06/25 10:19:24;;;;;;;2.50;2.30;;;18.80;75.50;;;;;;5024049;28;20029;-77
2021/06/25 10:21:51;;;;;;;1.87;1.73;;;18.80;75.50;;;;;;5029035;28;20030;-77
2021/06/25 10:24:18;;;;;;;2.88;1.80;;;18.80;76.00;;;;;;5023176;28;20284;-77
2021/06/25 10:26:44;;;;;;;2.00;1.80;;;18.80;76.30;;;;;;5026639;28;20112;-76
2021/06/25 10:29:10;;;;;;;2.40;1.80;;;18.80;75.30;;;;;;5029892;28;20112;-77
2021/06/25 10:31:36;;;;;;;2.60;1.70;;;18.70;75.10;;;;;;5023212;28;20038;-77
2021/06/25 10:34:03;;;;;;;1.70;1.60;;;18.80;75.50;;;;;;5045132;28;20036;-76
2021/06/25 10:36:31;;;;;;;2.00;1.65;;;18.80;75.50;;;;;;5030839;28;20068;-76
2021/06/25 10:39:09;;;;;;;1.85;1.55;;;18.80;75.40;;;;;;5030286;28;20033;-77
2021/06/25 10:42:10;;;;;;;1.65;1.38;;;18.80;75.30;;;;;;5028839;28;20087;-77
2021/06/25 10:44:41;;;;;;;2.15;1.40;;;18.90;76.40;;;;;;4988245;28;20033;-77
2021/06/25 10:47:26;;;;;;;1.42;1.33;;;19.10;74.00;;;;;;5021196;28;20052;-77
2021/06/25 10:50:04;;;;;;;1.30;1.20;;;19.30;72.30;;;;;;5028817;28;20508;-76
2021/06/25 10:52:40;;;;;;;1.60;1.50;;;19.50;71.50;;;;;;5026677;28;20033;-76
2021/06/25 10:55:13;;;;;;;1.50;1.40;;;19.60;72.30;;;;;;5031482;28;20033;-77
2021/06/25 10:57:54;;;;;;;1.95;1.60;;;19.80;71.90;;;;;;5021081;28;20068;-77
2021/06/25 11:00:53;;;;;;;1.70;1.60;;;19.90;71.00;;;;;;5020065;28;20444;-77
2021/06/25 11:03:41;;;;;;;1.60;1.50;;;19.90;71.70;;;;;;5021690;28;20734;-77
2021/06/25 11:06:28;;;;;;;1.63;1.50;;;19.80;70.60;;;;;;5028620;28;20105;-77
2021/06/25 11:09:08;;;;;;;1.20;1.10;;;19.70;71.10;;;;;;5019807;28;20587;-77
2021/06/25 11:11:34;;;;;;;0.88;0.88;;;19.30;71.70;;;;;;5026683;28;20052;-76
2021/06/25 11:14:02;;;;;;;0.90;0.90;;;19.00;72.60;;;;;;5030966;28;21268;-77
2021/06/25 11:16:28;;;;;;;1.67;1.13;;;18.60;74.10;;;;;;5020860;28;20029;-77
2021/06/25 11:18:53;;;;;;;1.80;1.20;;;18.40;76.30;;;;;;5024412;28;20040;-76
2021/06/25 11:21:19;;;;;;;1.23;1.00;;;18.20;77.90;;;;;;5041276;28;20116;-76
2021/06/25 11:23:46;;;;;;;1.35;1.20;;;18.10;79.10;;;;;;5026752;28;20049;-75
2021/06/25 11:26:14;;;;;;;1.83;1.33;;;17.90;79.80;;;;;;5028159;28;20064;-75
2021/06/25 11:28:47;;;;;;;3.38;1.42;;;17.80;80.50;;;;;;5024130;28;20026;-76
2021/06/25 11:31:13;;;;;;;1.52;1.23;;;17.70;80.90;;;;;;5027843;28;20030;-75
2021/06/25 11:33:47;;;;;;;2.60;1.30;;;17.80;80.90;;;;;;5023139;28;20027;-76
2021/06/25 11:36:13;;;;;;;1.40;1.17;;;17.80;81.40;;;;;;5026299;28;20101;-76
2021/06/25 11:38:54;;;;;;;2.55;1.10;;;17.80;81.80;;;;;;5028029;28;20455;-76
2021/06/25 11:41:26;;;;;;;1.10;1.00;;;17.80;82.70;;;;;;5029154;28;20022;-76
2021/06/25 11:43:53;;;;;;;1.55;0.98;;;17.80;83.40;;;;;;5029120;28;20109;-77
2021/06/25 11:46:19;;;;;;;2.13;1.30;;;17.90;83.10;;;;;;5030854;28;20057;-75
2021/06/25 11:48:45;;;;;;;1.55;1.45;;;17.90;82.90;;;;;;5029754;28;20021;-77
2021/06/25 11:51:13;;;;;;;1.55;1.10;;;17.80;83.00;;;;;;5023711;28;20030;-77
2021/06/25 11:53:45;;;;;;;1.50;1.40;;;17.90;84.40;;;;;;5031171;28;20017;-76
2021/06/25 11:56:22;;;;;;;1.45;1.33;;;17.90;84.00;;;;;;5027281;28;20120;-76
2021/06/25 11:59:03;;;;;;;1.33;1.23;;;18.00;83.00;;;;;;5016131;28;20044;-76
2021/06/25 12:01:30;;;;;;;1.50;1.40;;;18.00;84.40;;;;;;5024306;28;20044;-77
2021/06/25 12:03:57;;;;;;;1.50;1.40;;;18.00;83.90;;;;;;5026984;28;20108;-76
2021/06/25 12:06:24;;;;;;;1.42;1.30;;;18.00;84.30;;;;;;5021823;28;20025;-76
2021/06/25 12:09:02;;;;;;;1.55;1.40;;;18.10;85.40;;;;;;5024645;28;20042;-76
2021/06/25 12:11:30;;;;;;;1.52;1.42;;;18.20;83.20;;;;;;5024219;28;20025;-76
2021/06/25 12:14:00;;;;;;;2.80;1.40;;;18.20;82.80;;;;;;5024682;28;20150;-76
2021/06/25 12:16:25;;;;;;;1.20;1.10;;;18.30;82.10;;;;;;5027091;28;20025;-76
2021/06/25 12:18:51;;;;;;;1.77;1.30;;;18.20;82.30;;;;;;5024291;28;20036;-76
2021/06/25 12:21:19;;;;;;;1.58;1.23;;;18.20;82.50;;;;;;5019597;28;20053;-76
2021/06/25 12:23:50;;;;;;;3.20;1.20;;;18.10;82.10;;;;;;5029812;28;20021;-76
2021/06/25 12:26:19;;;;;;;1.83;1.33;;;18.10;82.50;;;;;;5023856;28;20040;-76
2021/06/25 12:28:50;;;;;;;1.92;1.50;;;18.10;83.40;;;;;;5025976;28;20495;-76
2021/06/25 12:31:36;;;;;;;2.97;1.60;;;18.10;82.70;;;;;;5028471;28;20496;-76
2021/06/25 12:34:03;;;;;;;1.40;1.30;;;18.00;82.70;;;;;;5024573;28;20047;-75
2021/06/25 12:36:29;;;;;;;2.53;1.70;;;17.90;82.80;;;;;;5022433;28;20488;-76
2021/06/25 12:39:00;;;;;;;1.63;1.52;;;17.90;83.60;;;;;;5025056;28;20052;-76
2021/06/25 12:41:26;;;;;;;1.27;1.17;;;17.70;83.10;;;;;;5026666;28;20029;-75
2021/06/25 12:43:54;;;;;;;1.20;1.10;;;17.70;83.40;;;;;;5025221;28;20021;-76
2021/06/25 12:46:21;;;;;;;1.10;1.00;;;17.60;83.30;;;;;;5025633;28;20028;-76
2021/06/25 12:48:55;;;;;;;1.15;1.10;;;17.50;83.60;;;;;;5023017;28;20132;-76
2021/06/25 12:51:26;;;;;;;1.15;1.05;;;17.50;83.90;;;;;;5027960;28;20107;-75
2021/06/25 12:53:55;;;;;;;0.75;0.75;;;17.60;85.00;;;;;;5027002;28;20504;-77
2021/06/25 12:56:31;;;;;;;0.70;0.70;;;17.50;84.00;;;;;;5019371;28;20116;-75
2021/06/25 12:59:04;;;;;;;2.45;0.88;;;17.50;83.40;;;;;;5023620;28;20029;-76
2021/06/25 13:01:40;;;;;;;0.60;0.60;;;17.50;84.50;;;;;;5021990;28;20052;-75
2021/06/25 13:04:22;;;;;;;1.00;0.77;;;17.50;83.80;;;;;;5022648;28;20032;-76
2021/06/25 13:07:01;;;;;;;0.50;0.50;;;17.60;84.20;;;;;;5021053;28;20033;-76